Time;durP1;ratioP1;P1;durP2;ratioP2;P2;SDS_P1;SDS_P2;PMS_P1;PMS_P2;Temp;Humidity;BMP_temperature;BMP_pressure;BME280_temperature;BME280_humidity;BME280_pressure;Samples;Min_cycle;Max_cycle;Signal;HPM_P1;HPM_P2
2023/10/17 00:00:32;;;;;;;12.27;7.78;;;5.50;99.90;;;;;;5055467;28;20116;-51
2023/10/17 00:02:59;;;;;;;10.45;7.60;;;5.50;99.90;;;;;;5057941;28;20036;-48
2023/10/17 00:05:25;;;;;;;10.85;7.90;;;5.50;99.90;;;;;;5055313;28;20128;-52
2023/10/17 00:07:51;;;;;;;14.85;7.82;;;5.50;99.90;;;;;;5056784;28;20737;-48
2023/10/17 00:10:18;;;;;;;11.07;7.78;;;5.40;99.90;;;;;;5058181;28;20141;-50
2023/10/17 00:12:46;;;;;;;9.98;7.28;;;5.40;99.90;;;;;;5057351;28;20048;-48
2023/10/17 00:15:27;;;;;;;10.52;7.45;;;5.40;99.90;;;;;;5059007;28;20052;-47
2023/10/17 00:18:03;;;;;;;8.00;6.85;;;5.40;99.90;;;;;;5054877;28;20069;-47
2023/10/17 00:20:37;;;;;;;9.60;7.00;;;5.40;99.90;;;;;;5052209;28;20062;-48
2023/10/17 00:23:04;;;;;;;7.75;5.95;;;5.30;99.90;;;;;;5058021;28;20044;-49
2023/10/17 00:25:30;;;;;;;9.67;6.40;;;5.40;99.90;;;;;;5057573;28;20055;-49
2023/10/17 00:27:57;;;;;;;7.90;6.20;;;5.40;99.90;;;;;;5055829;28;20116;-49
2023/10/17 00:30:23;;;;;;;8.18;6.65;;;5.30;99.90;;;;;;5052456;28;20415;-49
2023/10/17 00:32:52;;;;;;;8.50;6.32;;;5.30;99.90;;;;;;5061964;28;20115;-48
2023/10/17 00:35:19;;;;;;;7.53;5.80;;;5.30;99.90;;;;;;5056388;28;20052;-49
2023/10/17 00:37:57;;;;;;;8.52;6.65;;;5.30;99.90;;;;;;5060042;28;20059;-48
2023/10/17 00:40:56;;;;;;;7.35;6.10;;;5.30;99.90;;;;;;5058215;28;20045;-48
2023/10/17 00:43:15;;;;;;;6.80;5.45;;;5.20;99.90;;;;;;5057968;28;20083;-48
2023/10/17 00:45:45;;;;;;;9.07;6.18;;;5.10;99.90;;;;;;5055266;28;20084;-48
2023/10/17 00:48:18;;;;;;;8.00;5.97;;;5.10;99.90;;;;;;5057589;28;20572;-49
2023/10/17 00:50:48;;;;;;;7.78;5.78;;;5.10;99.90;;;;;;5063420;28;20044;-50
2023/10/17 00:53:15;;;;;;;9.55;6.03;;;5.10;99.90;;;;;;5065769;28;20091;-51
2023/10/17 00:55:50;;;;;;;5.72;5.22;;;5.10;99.90;;;;;;5066743;28;20036;-48
2023/10/17 00:58:19;;;;;;;6.97;5.70;;;5.10;99.90;;;;;;5065422;28;20098;-51
2023/10/17 01:00:53;;;;;;;9.77;6.07;;;5.20;99.90;;;;;;5056824;28;20059;-51
2023/10/17 01:03:20;;;;;;;8.95;5.85;;;5.20;99.90;;;;;;5060512;28;20135;-50
2023/10/17 01:08:39;;;;;;;7.18;6.45;;;5.30;99.90;;;;;;5059485;28;20048;-49
2023/10/17 01:11:09;;;;;;;8.02;5.93;;;5.30;99.90;;;;;;5058321;28;20052;-49
2023/10/17 01:13:39;;;;;;;6.97;5.78;;;5.30;99.90;;;;;;5061299;28;20371;-49
2023/10/17 01:16:12;;;;;;;8.38;6.25;;;5.30;99.90;;;;;;5065941;28;20175;-51
2023/10/17 01:18:38;;;;;;;6.93;6.03;;;5.30;99.90;;;;;;5067488;28;20048;-48
2023/10/17 01:21:04;;;;;;;7.47;6.10;;;5.40;99.90;;;;;;5060734;28;20101;-48
2023/10/17 01:23:31;;;;;;;6.97;5.88;;;5.40;99.90;;;;;;5058669;28;20131;-48
2023/10/17 01:25:58;;;;;;;7.57;5.68;;;5.40;99.90;;;;;;5058106;28;20116;-50
2023/10/17 01:28:24;;;;;;;7.90;5.18;;;5.40;99.90;;;;;;5055784;28;20048;-50
2023/10/17 01:30:57;;;;;;;5.40;4.88;;;5.40;99.90;;;;;;5061570;28;20032;-49
2023/10/17 01:33:27;;;;;;;7.45;5.53;;;5.50;99.90;;;;;;5059116;28;20098;-48
2023/10/17 01:35:53;;;;;;;8.50;5.85;;;5.40;99.90;;;;;;5062416;28;20483;-50
2023/10/17 01:38:20;;;;;;;7.05;5.82;;;5.50;99.90;;;;;;5061255;28;20044;-51
2023/10/17 01:40:45;;;;;;;8.40;5.77;;;5.50;99.90;;;;;;5053942;28;20053;-47
2023/10/17 01:43:11;;;;;;;6.75;5.47;;;5.40;99.90;;;;;;5061581;28;20311;-47
2023/10/17 01:45:37;;;;;;;7.78;5.55;;;5.40;99.90;;;;;;5060678;28;20053;-47
2023/10/17 01:48:04;;;;;;;6.97;5.32;;;5.50;99.90;;;;;;5056617;28;20140;-47
2023/10/17 01:50:31;;;;;;;7.90;5.40;;;5.50;99.90;;;;;;5061157;28;20076;-47
2023/10/17 01:52:59;;;;;;;7.57;5.05;;;5.30;99.90;;;;;;5057078;28;20052;-48
2023/10/17 01:55:27;;;;;;;7.47;5.28;;;5.40;99.90;;;;;;5058886;28;20403;-47
2023/10/17 01:57:57;;;;;;;8.60;5.18;;;5.30;99.90;;;;;;5058124;28;20491;-51
2023/10/17 02:03:03;;;;;;;7.05;4.72;;;5.20;99.90;;;;;;5064678;28;20068;-47
2023/10/17 02:05:29;;;;;;;6.25;4.95;;;5.10;99.90;;;;;;5044207;28;20475;-47
2023/10/17 02:07:55;;;;;;;6.85;4.97;;;5.10;99.90;;;;;;5061833;28;20070;-47
2023/10/17 02:10:21;;;;;;;6.00;5.28;;;5.00;99.90;;;;;;5060420;28;20054;-49
2023/10/17 02:12:48;;;;;;;8.30;5.55;;;5.10;99.90;;;;;;5058092;28;20727;-48
2023/10/17 02:15:19;;;;;;;5.90;4.95;;;5.10;99.90;;;;;;5057469;28;20066;-48
2023/10/17 02:17:46;;;;;;;6.07;4.65;;;5.10;99.90;;;;;;5057370;28;20052;-48
2023/10/17 02:20:21;;;;;;;6.63;5.18;;;5.00;99.90;;;;;;5059245;28;20118;-49
2023/10/17 02:22:49;;;;;;;5.32;4.82;;;5.00;99.90;;;;;;5065493;28;20041;-47
2023/10/17 02:25:16;;;;;;;6.18;5.13;;;5.00;99.90;;;;;;5059605;28;20491;-49
2023/10/17 02:27:43;;;;;;;5.00;4.50;;;5.00;99.90;;;;;;5062568;28;20126;-47
2023/10/17 02:30:13;;;;;;;5.90;5.22;;;4.90;99.90;;;;;;5063235;28;20052;-49
2023/10/17 02:32:44;;;;;;;5.00;4.50;;;4.90;99.90;;;;;;5062518;28;20158;-48
2023/10/17 02:35:14;;;;;;;6.43;4.43;;;4.80;99.90;;;;;;5060497;28;20603;-47
2023/10/17 02:37:43;;;;;;;5.85;4.45;;;4.80;99.90;;;;;;5054177;28;20033;-49
2023/10/17 02:40:20;;;;;;;8.02;5.00;;;4.80;99.90;;;;;;5056930;28;20044;-48
2023/10/17 02:42:46;;;;;;;5.38;4.85;;;4.80;99.90;;;;;;5061227;28;20525;-48
2023/10/17 02:45:12;;;;;;;5.20;4.70;;;4.80;99.90;;;;;;5061183;28;20376;-49
2023/10/17 02:47:39;;;;;;;5.45;4.95;;;4.70;99.90;;;;;;5060223;28;20098;-50
2023/10/17 02:50:20;;;;;;;6.15;4.88;;;4.80;99.90;;;;;;5061793;28;20051;-48
2023/10/17 02:52:51;;;;;;;5.47;4.75;;;4.70;99.90;;;;;;5056333;28;20052;-47
2023/10/17 02:55:23;;;;;;;7.50;4.20;;;4.70;99.90;;;;;;5058248;28;20056;-48
2023/10/17 02:57:53;;;;;;;4.80;4.30;;;4.60;99.90;;;;;;5060580;28;20052;-49
2023/10/17 03:00:23;;;;;;;5.22;3.97;;;4.50;99.90;;;;;;5054171;28;20041;-47
2023/10/17 03:02:52;;;;;;;6.15;4.30;;;4.50;99.90;;;;;;5056242;28;20407;-47
2023/10/17 03:05:18;;;;;;;5.40;3.72;;;4.40;99.90;;;;;;5053452;28;20040;-49
2023/10/17 03:07:49;;;;;;;5.47;4.80;;;4.40;99.90;;;;;;5063286;28;20572;-47
2023/10/17 03:10:20;;;;;;;5.00;3.90;;;4.40;99.90;;;;;;5059817;28;20174;-48
2023/10/17 03:12:55;;;;;;;6.18;3.83;;;4.40;99.90;;;;;;5058659;28;20128;-48
2023/10/17 03:15:29;;;;;;;6.25;4.53;;;4.30;99.90;;;;;;5062287;28;20570;-47
2023/10/17 03:18:00;;;;;;;4.40;4.00;;;4.30;99.90;;;;;;5061602;28;20048;-47
2023/10/17 03:20:36;;;;;;;6.60;4.45;;;4.20;99.90;;;;;;5057216;28;20041;-47
2023/10/17 03:23:04;;;;;;;4.75;3.90;;;4.30;99.90;;;;;;5060089;28;20685;-47
2023/10/17 03:25:37;;;;;;;5.22;4.57;;;4.20;99.90;;;;;;5060190;28;20423;-48
2023/10/17 03:28:13;;;;;;;5.57;4.80;;;4.30;99.90;;;;;;5064706;28;20143;-47
2023/10/17 03:30:39;;;;;;;6.05;3.80;;;4.20;99.90;;;;;;5060656;28;20087;-51
2023/10/17 03:33:14;;;;;;;6.30;4.55;;;4.20;99.90;;;;;;5062283;28;20033;-50
2023/10/17 03:36:04;;;;;;;5.65;3.90;;;4.20;99.90;;;;;;5056506;28;20162;-48
2023/10/17 03:38:33;;;;;;;5.47;4.70;;;4.30;99.90;;;;;;5052649;28;20737;-48
2023/10/17 03:41:06;;;;;;;8.73;5.60;;;4.30;99.90;;;;;;5059179;28;20467;-47
2023/10/17 03:43:38;;;;;;;6.03;5.03;;;4.30;99.90;;;;;;5057681;28;20044;-49
2023/10/17 03:46:07;;;;;;;5.63;4.82;;;4.40;99.90;;;;;;5053282;28;20136;-47
2023/10/17 03:48:36;;;;;;;8.38;5.40;;;4.40;99.90;;;;;;5051617;28;20048;-47
2023/10/17 03:53:32;;;;;;;9.00;5.38;;;4.40;99.90;;;;;;5060538;28;20106;-48
2023/10/17 03:56:01;;;;;;;6.28;5.40;;;4.40;99.90;;;;;;5056009;28;20411;-50
2023/10/17 04:01:09;;;;;;;6.32;5.40;;;4.50;99.90;;;;;;5059212;28;20064;-48
2023/10/17 04:03:36;;;;;;;9.57;6.68;;;4.50;99.90;;;;;;5054311;28;20048;-50
2023/10/17 04:13:52;;;;;;;9.73;6.10;;;4.50;99.90;;;;;;5061916;28;20048;-48
2023/10/17 04:16:22;;;;;;;8.70;6.03;;;4.60;99.90;;;;;;5036544;28;20423;-48
2023/10/17 04:18:57;;;;;;;9.73;6.15;;;4.50;99.90;;;;;;5057696;28;20036;-49
2023/10/17 04:21:27;;;;;;;8.52;6.13;;;4.50;99.90;;;;;;5052258;28;20045;-47
2023/10/17 04:23:55;;;;;;;7.65;5.20;;;4.60;99.90;;;;;;5038572;28;20865;-48
2023/10/17 04:26:27;;;;;;;8.65;5.78;;;4.50;99.90;;;;;;5046977;28;20495;-47
2023/10/17 04:29:00;;;;;;;7.40;5.75;;;4.30;99.90;;;;;;5060338;28;20094;-49
2023/10/17 04:31:28;;;;;;;6.13;5.55;;;4.30;99.90;;;;;;5058717;28;20433;-48
2023/10/17 04:34:06;;;;;;;9.18;6.47;;;4.30;99.90;;;;;;5057674;28;20037;-49
2023/10/17 04:36:38;;;;;;;8.75;5.82;;;4.30;99.90;;;;;;5057281;28;20048;-49
2023/10/17 04:44:25;;;;;;;7.43;6.68;;;4.00;99.90;;;;;;5054062;28;20048;-47
2023/10/17 04:49:30;;;;;;;6.95;5.65;;;4.10;99.90;;;;;;5058614;28;20037;-48
2023/10/17 04:52:06;;;;;;;5.75;5.25;;;4.00;99.90;;;;;;5055103;28;20071;-47
2023/10/17 04:57:02;;;;;;;6.10;5.45;;;3.90;99.90;;;;;;5051093;28;20444;-48
2023/10/17 06:18:39;;;;;;;10.63;9.02;;;4.00;99.90;;;;;;5060425;28;20042;-47
2023/10/17 06:26:59;;;;;;;12.93;9.20;;;3.90;99.90;;;;;;5061114;28;20060;-47
2023/10/17 06:32:15;;;;;;;11.68;8.30;;;4.20;99.90;;;;;;5057743;28;20049;-48
2023/10/17 06:34:42;;;;;;;11.10;9.30;;;4.10;99.90;;;;;;5059737;28;20128;-48
2023/10/17 06:37:09;;;;;;;11.20;9.43;;;4.10;99.90;;;;;;5061173;28;20054;-47
2023/10/17 06:39:37;;;;;;;11.40;9.00;;;4.20;99.90;;;;;;5058152;28;20129;-47
2023/10/17 06:45:09;;;;;;;12.40;9.57;;;4.30;99.90;;;;;;5058591;28;20048;-48
2023/10/17 06:47:50;;;;;;;12.82;9.77;;;4.20;99.90;;;;;;5057146;28;20065;-48
2023/10/17 06:55:28;;;;;;;12.48;11.20;;;4.40;99.90;;;;;;5058595;28;20084;-48
2023/10/17 06:58:08;;;;;;;12.18;10.32;;;4.50;99.90;;;;;;5058495;28;20089;-47
2023/10/17 07:03:13;;;;;;;13.85;11.63;;;4.70;99.90;;;;;;5062711;28;20052;-50
2023/10/17 07:05:49;;;;;;;15.70;12.48;;;;;;;;;;5059312;28;20179;-48
2023/10/17 07:08:19;;;;;;;17.58;13.80;;;4.60;99.90;;;;;;5062776;28;20324;-48
2023/10/17 07:13:54;;;;;;;14.73;13.02;;;5.00;99.90;;;;;;5062092;28;20052;-48
2023/10/17 07:16:32;;;;;;;14.45;12.70;;;5.20;99.90;;;;;;5063353;28;20045;-50
2023/10/17 07:19:09;;;;;;;16.95;13.88;;;;;;;;;;5064539;28;20048;-49
2023/10/17 07:21:56;;;;;;;15.38;13.55;;;5.30;99.90;;;;;;5054754;28;20098;-49
2023/10/17 07:24:23;;;;;;;16.38;13.57;;;5.50;99.90;;;;;;5052451;28;20045;-46
2023/10/17 07:26:52;;;;;;;13.43;12.15;;;5.60;99.90;;;;;;5052028;28;20048;-47
2023/10/17 07:29:22;;;;;;;13.77;12.38;;;5.70;99.90;;;;;;5052209;28;20201;-50
2023/10/17 07:31:55;;;;;;;15.05;12.18;;;5.80;99.90;;;;;;5052119;28;20044;-47
2023/10/17 07:34:22;;;;;;;12.27;10.82;;;6.00;99.90;;;;;;5068922;28;20048;-51
2023/10/17 07:36:55;;;;;;;12.95;11.65;;;;;;;;;;5077516;28;20040;-47
2023/10/17 07:41:53;;;;;;;16.02;10.77;;;6.30;99.90;;;;;;5071613;28;20049;-49
2023/10/17 07:44:21;;;;;;;14.52;10.32;;;6.40;99.90;;;;;;5071826;28;20056;-47
2023/10/17 07:46:49;;;;;;;12.30;11.02;;;6.60;99.90;;;;;;5070721;28;20052;-48
2023/10/17 07:49:26;;;;;;;14.10;10.43;;;6.70;99.90;;;;;;5073772;28;20045;-47
2023/10/17 07:51:54;;;;;;;14.93;10.27;;;6.80;99.90;;;;;;5081058;28;20135;-47
2023/10/17 07:54:28;;;;;;;11.98;9.30;;;7.00;99.90;;;;;;5068735;28;20090;-48
2023/10/17 07:56:54;;;;;;;14.23;9.20;;;6.90;99.90;;;;;;5071755;28;20079;-48
2023/10/17 07:59:30;;;;;;;9.70;7.47;;;7.30;99.90;;;;;;5071490;28;20146;-47
2023/10/17 08:02:00;;;;;;;11.80;6.97;;;;;;;;;;5071492;28;20093;-48
2023/10/17 08:04:30;;;;;;;9.07;7.30;;;;;;;;;;5071324;28;20138;-59
2023/10/17 08:06:56;;;;;;;11.90;7.78;;;7.50;99.90;;;;;;5061231;28;20102;-48
2023/10/17 08:11:53;;;;;;;10.02;6.30;;;;;;;;;;5062614;28;20503;-48
2023/10/17 08:14:27;;;;;;;9.73;5.70;;;7.70;99.90;;;;;;5052219;28;20056;-47
2023/10/17 08:16:55;;;;;;;7.90;5.90;;;7.80;99.90;;;;;;5051984;28;20505;-48
2023/10/17 08:19:23;;;;;;;;;;;7.90;99.90;;;;;;5055754;28;20051;-51
2023/10/17 08:21:59;;;;;;;8.75;5.97;;;8.00;99.90;;;;;;5051572;28;20357;-49
2023/10/17 08:24:51;;;;;;;10.50;6.70;;;8.20;99.90;;;;;;5063311;28;20052;-48
2023/10/17 08:30:05;;;;;;;8.55;5.50;;;8.40;99.90;;;;;;5062035;28;20045;-50
2023/10/17 08:32:39;;;;;;;11.80;5.07;;;8.60;99.90;;;;;;5057223;28;20059;-47
2023/10/17 08:35:17;;;;;;;7.57;4.72;;;8.70;99.90;;;;;;5050204;28;20045;-47
2023/10/17 08:37:46;;;;;;;10.68;4.72;;;8.80;99.90;;;;;;5055578;28;20045;-48
2023/10/17 08:40:32;;;;;;;4.28;3.63;;;9.00;99.90;;;;;;5057235;28;20137;-48
2023/10/17 08:43:03;;;;;;;6.95;3.22;;;;;;;;;;5056755;28;20037;-50
2023/10/17 08:45:37;;;;;;;5.55;3.20;;;9.10;99.90;;;;;;5061207;28;20064;-51
2023/10/17 08:48:05;;;;;;;6.90;3.03;;;;;;;;;;5055070;28;20041;-49
2023/10/17 08:50:39;;;;;;;5.78;2.97;;;10.70;99.90;;;;;;5058958;28;20114;-51
2023/10/17 08:55:44;;;;;;;5.57;2.70;;;9.40;99.90;;;;;;5058198;28;20049;-48
2023/10/17 08:58:10;;;;;;;4.07;2.58;;;9.50;99.90;;;;;;5063500;28;20390;-49
2023/10/17 09:00:49;;;;;;;5.05;2.35;;;9.60;99.90;;;;;;5057898;28;20036;-50
2023/10/17 09:03:31;;;;;;;5.72;2.28;;;9.80;99.90;;;;;;5068098;28;20435;-49
2023/10/17 09:05:58;;;;;;;5.07;2.50;;;9.80;99.90;;;;;;5059851;28;20410;-47
2023/10/17 09:11:15;;;;;;;3.70;2.08;;;9.90;99.90;;;;;;5061768;28;22144;-48
2023/10/17 09:16:15;;;;;;;3.60;1.60;;;10.20;99.90;;;;;;5066075;28;20060;-49
2023/10/17 09:18:48;;;;;;;4.45;1.30;;;10.30;99.90;;;;;;5063362;28;20051;-49
2023/10/17 09:21:16;;;;;;;2.25;1.13;;;10.30;99.90;;;;;;5066711;28;20100;-49
2023/10/17 09:23:42;;;;;;;1.60;1.08;;;10.30;99.90;;;;;;5065603;28;20200;-48
2023/10/17 09:26:11;;;;;;;2.35;1.10;;;10.30;99.90;;;;;;5069524;28;20150;-48
2023/10/17 09:28:39;;;;;;;4.35;1.35;;;10.40;99.90;;;;;;5067711;28;20522;-51
2023/10/17 09:31:08;;;;;;;3.60;1.15;;;10.30;99.90;;;;;;5064137;28;20078;-49
2023/10/17 09:33:45;;;;;;;2.80;1.30;;;10.50;99.90;;;;;;5064446;28;20044;-49
2023/10/17 09:36:12;;;;;;;3.20;0.77;;;10.40;99.90;;;;;;5062994;28;20057;-48
2023/10/17 09:38:45;;;;;;;4.05;1.00;;;10.50;99.90;;;;;;5056799;28;20044;-48
2023/10/17 09:41:17;;;;;;;4.07;1.10;;;10.50;99.90;;;;;;5061103;28;20185;-49
2023/10/17 09:43:51;;;;;;;4.45;1.10;;;10.50;99.90;;;;;;5068140;28;20407;-47
2023/10/17 09:46:22;;;;;;;3.88;1.23;;;10.60;99.90;;;;;;5065983;28;20399;-50
2023/10/17 09:48:52;;;;;;;3.55;1.30;;;10.70;99.90;;;;;;5055242;28;20075;-48
2023/10/17 09:51:24;;;;;;;3.17;1.20;;;10.80;99.90;;;;;;5066178;28;20037;-49
2023/10/17 09:53:54;;;;;;;4.38;1.20;;;10.90;99.90;;;;;;5071035;28;20045;-48
2023/10/17 09:56:25;;;;;;;4.03;1.27;;;11.00;99.90;;;;;;5055625;28;20144;-51
2023/10/17 09:58:54;;;;;;;4.03;1.05;;;11.10;99.90;;;;;;5066122;28;20063;-51
2023/10/17 10:01:29;;;;;;;3.47;0.90;;;11.20;99.90;;;;;;5068350;28;20039;-51
2023/10/17 10:04:01;;;;;;;2.70;0.80;;;11.10;99.90;;;;;;5071710;28;20045;-48
2023/10/17 10:06:32;;;;;;;3.20;0.93;;;11.20;99.90;;;;;;5071421;28;20043;-49
2023/10/17 10:09:13;;;;;;;3.38;0.95;;;11.30;99.90;;;;;;5071887;28;20039;-48
2023/10/17 10:11:51;;;;;;;5.93;1.08;;;11.30;99.90;;;;;;5069088;28;20041;-51
2023/10/17 10:14:35;;;;;;;;;;;11.40;99.90;;;;;;5068092;28;20494;-48
2023/10/17 10:17:04;;;;;;;1.70;1.02;;;11.40;99.90;;;;;;5070454;28;20739;-49
2023/10/17 10:19:41;;;;;;;4.97;1.00;;;11.40;99.90;;;;;;5070816;28;20040;-49
2023/10/17 10:22:15;;;;;;;3.97;1.00;;;11.40;99.90;;;;;;5064074;28;20359;-48
2023/10/17 10:24:41;;;;;;;3.58;0.90;;;11.50;99.90;;;;;;5074093;28;20042;-47
2023/10/17 10:27:10;;;;;;;3.97;1.05;;;11.60;99.90;;;;;;5059920;28;20041;-51
2023/10/17 10:29:37;;;;;;;1.67;0.55;;;11.60;99.90;;;;;;5058518;28;20157;-49
2023/10/17 10:32:06;;;;;;;4.83;1.00;;;11.60;99.90;;;;;;5063544;28;20093;-51
2023/10/17 10:34:36;;;;;;;3.15;0.80;;;11.60;99.90;;;;;;5065422;28;20048;-47
2023/10/17 10:37:08;;;;;;;6.10;1.08;;;11.50;99.90;;;;;;5067097;28;20166;-47
2023/10/17 10:39:35;;;;;;;1.98;0.80;;;11.60;99.90;;;;;;5065452;28;20033;-47
2023/10/17 10:42:05;;;;;;;2.65;0.93;;;11.60;99.90;;;;;;5062477;28;20036;-47
2023/10/17 10:44:39;;;;;;;4.75;1.17;;;11.80;99.90;;;;;;5058637;28;20056;-50
2023/10/17 10:47:06;;;;;;;2.70;0.80;;;11.80;99.90;;;;;;5054204;28;20051;-50
2023/10/17 10:49:31;;;;;;;3.63;1.00;;;11.80;99.90;;;;;;5066434;28;20490;-47
2023/10/17 10:52:00;;;;;;;3.30;0.77;;;11.70;99.90;;;;;;5055256;28;20052;-48
2023/10/17 10:54:54;;;;;;;3.80;0.80;;;11.80;99.90;;;;;;5056437;28;20041;-47
2023/10/17 10:57:28;;;;;;;6.35;1.02;;;11.90;99.90;;;;;;5062688;28;20059;-48
2023/10/17 10:59:53;;;;;;;3.70;1.10;;;12.00;99.90;;;;;;5067479;28;20071;-47
2023/10/17 11:02:20;;;;;;;1.75;0.77;;;11.90;99.90;;;;;;5061365;28;20098;-50
2023/10/17 11:04:47;;;;;;;3.97;1.00;;;11.80;99.90;;;;;;5065136;28;20052;-47
2023/10/17 11:07:23;;;;;;;3.33;0.85;;;11.90;99.90;;;;;;5065051;28;20055;-47
2023/10/17 11:10:06;;;;;;;3.90;1.08;;;11.90;99.90;;;;;;5066163;28;20089;-49
2023/10/17 11:12:35;;;;;;;2.13;0.93;;;11.90;99.90;;;;;;5062975;28;20040;-48
2023/10/17 11:15:18;;;;;;;2.17;0.80;;;11.80;99.90;;;;;;5068365;28;20497;-47
2023/10/17 11:17:45;;;;;;;2.80;0.98;;;12.00;99.90;;;;;;5059792;28;20130;-48
2023/10/17 11:20:14;;;;;;;2.53;0.80;;;12.00;99.90;;;;;;5068426;28;20448;-48
2023/10/17 11:22:44;;;;;;;3.67;1.00;;;12.00;99.90;;;;;;5061431;28;20053;-48
2023/10/17 11:25:27;;;;;;;1.58;0.52;;;11.90;99.90;;;;;;5054149;28;20041;-48
2023/10/17 11:28:08;;;;;;;1.77;0.65;;;11.90;99.90;;;;;;5058602;28;20105;-47
2023/10/17 11:30:42;;;;;;;2.90;0.98;;;12.00;99.90;;;;;;5060303;28;20713;-48
2023/10/17 11:33:14;;;;;;;1.98;0.93;;;12.00;99.90;;;;;;5058319;28;20090;-49
2023/10/17 11:35:52;;;;;;;1.38;0.70;;;12.10;99.90;;;;;;5070881;28;20052;-47
2023/10/17 11:38:33;;;;;;;2.47;0.85;;;12.10;99.90;;;;;;5059722;28;20070;-50
2023/10/17 11:41:01;;;;;;;3.08;0.90;;;12.20;99.90;;;;;;5057535;28;20172;-49
2023/10/17 11:43:33;;;;;;;1.58;0.88;;;12.20;99.90;;;;;;5062976;28;20101;-48
2023/10/17 11:46:00;;;;;;;2.85;0.80;;;12.20;99.90;;;;;;5063514;28;20507;-47
2023/10/17 11:48:27;;;;;;;2.90;0.98;;;12.20;99.90;;;;;;5054301;28;20069;-51
2023/10/17 11:51:28;;;;;;;3.73;0.87;;;12.30;99.90;;;;;;5065436;28;20168;-51
2023/10/17 11:54:07;;;;;;;1.13;0.98;;;12.10;99.90;;;;;;5064632;28;20090;-52
2023/10/17 11:56:34;;;;;;;2.30;0.90;;;12.30;99.90;;;;;;5061629;28;20040;-50
2023/10/17 11:59:03;;;;;;;5.05;1.27;;;12.20;99.90;;;;;;5065566;28;20513;-49
2023/10/17 12:01:32;;;;;;;5.45;1.10;;;12.20;99.90;;;;;;5059823;28;20101;-49
2023/10/17 12:03:59;;;;;;;2.63;1.15;;;12.20;99.90;;;;;;5059907;28;20040;-48
2023/10/17 12:06:28;;;;;;;2.17;1.13;;;12.10;99.90;;;;;;5061747;28;20036;-49
2023/10/17 12:08:55;;;;;;;2.17;0.90;;;12.10;99.90;;;;;;5063599;28;20061;-49
2023/10/17 12:11:24;;;;;;;2.23;1.17;;;12.20;99.90;;;;;;5060319;28;20091;-48
2023/10/17 12:13:51;;;;;;;3.92;1.30;;;12.20;99.90;;;;;;5064759;28;20052;-50
2023/10/17 12:16:20;;;;;;;2.05;0.93;;;12.10;99.90;;;;;;5067636;28;20381;-51
2023/10/17 12:18:46;;;;;;;5.03;1.00;;;12.20;99.90;;;;;;5061234;28;20090;-48
2023/10/17 12:21:14;;;;;;;4.90;1.30;;;12.20;99.90;;;;;;5056450;28;20919;-48
2023/10/17 12:23:43;;;;;;;4.05;1.10;;;12.30;99.90;;;;;;5054869;28;20159;-49
2023/10/17 12:26:13;;;;;;;3.60;1.40;;;12.40;99.90;;;;;;5058344;28;20045;-48
2023/10/17 12:28:41;;;;;;;3.47;1.38;;;12.40;99.90;;;;;;5065954;28;20439;-50
2023/10/17 12:31:08;;;;;;;3.30;1.15;;;12.20;99.90;;;;;;5063559;28;20087;-50
2023/10/17 12:33:34;;;;;;;2.35;1.10;;;12.30;99.90;;;;;;5065216;28;20624;-49
2023/10/17 12:35:59;;;;;;;2.78;0.98;;;12.20;99.90;;;;;;5070805;28;20123;-49
2023/10/17 12:38:25;;;;;;;1.38;1.00;;;12.30;99.90;;;;;;5061587;28;20406;-49
2023/10/17 12:40:53;;;;;;;2.15;0.98;;;12.30;99.90;;;;;;5066283;28;20167;-49
2023/10/17 12:43:19;;;;;;;3.17;1.27;;;12.40;99.90;;;;;;5070382;28;20083;-49
2023/10/17 12:45:45;;;;;;;3.65;1.58;;;12.40;99.90;;;;;;5063886;28;20049;-52
2023/10/17 12:48:11;;;;;;;3.08;1.30;;;12.30;99.90;;;;;;5073420;28;20497;-50
2023/10/17 12:50:45;;;;;;;4.00;1.10;;;12.50;99.90;;;;;;5070986;28;20045;-51
2023/10/17 12:53:14;;;;;;;4.10;1.55;;;12.40;99.90;;;;;;5066200;28;20120;-50
2023/10/17 12:55:43;;;;;;;2.83;1.27;;;12.40;99.90;;;;;;5064352;28;20123;-49
2023/10/17 12:58:10;;;;;;;3.63;1.30;;;12.40;99.90;;;;;;5062103;28;20032;-52
2023/10/17 13:00:41;;;;;;;3.63;1.33;;;12.30;99.90;;;;;;5068981;28;20391;-49
2023/10/17 13:03:07;;;;;;;3.05;1.20;;;12.40;99.90;;;;;;5071917;28;20051;-49
2023/10/17 13:05:33;;;;;;;3.28;1.42;;;12.40;99.90;;;;;;5065213;28;20028;-49
2023/10/17 13:07:59;;;;;;;8.63;1.80;;;12.40;99.90;;;;;;5067150;28;20036;-48
2023/10/17 13:10:26;;;;;;;4.38;1.30;;;12.50;99.90;;;;;;5070506;28;20036;-49
2023/10/17 13:12:52;;;;;;;3.50;1.40;;;12.40;99.90;;;;;;5066622;28;20083;-49
2023/10/17 13:15:17;;;;;;;2.50;1.60;;;12.30;99.90;;;;;;5059293;28;20072;-51
2023/10/17 13:17:44;;;;;;;4.22;1.30;;;12.40;99.90;;;;;;5066713;28;20055;-48
2023/10/17 13:20:10;;;;;;;3.28;1.40;;;12.40;99.90;;;;;;5062759;28;20398;-49
2023/10/17 13:22:47;;;;;;;3.20;1.50;;;12.30;99.90;;;;;;5067456;28;20131;-51
2023/10/17 13:25:13;;;;;;;1.00;0.90;;;12.40;99.90;;;;;;5059803;28;20079;-49
2023/10/17 13:27:39;;;;;;;4.15;1.42;;;12.40;99.90;;;;;;5066830;28;20086;-48
2023/10/17 13:30:06;;;;;;;2.92;1.25;;;12.30;99.90;;;;;;5059284;28;20042;-48
2023/10/17 13:32:32;;;;;;;3.42;1.45;;;12.40;99.90;;;;;;5056963;28;20097;-48
2023/10/17 13:34:58;;;;;;;3.45;1.00;;;12.30;99.90;;;;;;5065694;28;20040;-48
2023/10/17 13:37:26;;;;;;;3.00;1.20;;;12.40;99.90;;;;;;5060239;28;20037;-48
2023/10/17 13:39:51;;;;;;;;;;;12.40;99.90;;;;;;5064777;28;20044;-49
2023/10/17 13:42:17;;;;;;;4.53;0.98;;;12.40;99.90;;;;;;5066017;28;19939;-51
2023/10/17 13:44:43;;;;;;;2.60;1.23;;;12.50;99.90;;;;;;5069770;28;20059;-48
2023/10/17 13:47:09;;;;;;;3.30;1.25;;;12.60;99.90;;;;;;5071716;28;20045;-52
2023/10/17 13:49:35;;;;;;;3.03;1.13;;;12.50;99.90;;;;;;5063651;28;20037;-49
2023/10/17 13:52:00;;;;;;;3.03;1.20;;;12.50;99.90;;;;;;5067429;28;20039;-51
2023/10/17 13:54:34;;;;;;;3.88;1.00;;;12.40;99.90;;;;;;5068458;28;20045;-48
2023/10/17 13:57:00;;;;;;;3.85;1.42;;;12.50;99.90;;;;;;5066128;28;20056;-53
2023/10/17 13:59:38;;;;;;;2.72;0.85;;;12.60;99.90;;;;;;5064908;28;20162;-49
2023/10/17 14:02:05;;;;;;;4.72;1.45;;;12.50;99.90;;;;;;5066551;28;20044;-49
2023/10/17 14:04:32;;;;;;;3.40;1.02;;;12.50;99.90;;;;;;5061781;28;20399;-53
2023/10/17 14:06:57;;;;;;;2.33;0.93;;;12.60;99.90;;;;;;5064326;28;20051;-49
2023/10/17 14:09:23;;;;;;;2.67;0.95;;;12.50;99.90;;;;;;5069742;28;20066;-50
2023/10/17 14:11:50;;;;;;;1.77;0.90;;;12.40;99.90;;;;;;5060775;28;20064;-49
2023/10/17 14:14:17;;;;;;;5.00;1.08;;;12.50;99.90;;;;;;5066370;28;20056;-49
2023/10/17 14:16:43;;;;;;;4.07;0.95;;;12.40;99.90;;;;;;5066002;28;20043;-49
2023/10/17 14:19:13;;;;;;;5.40;1.40;;;12.40;99.90;;;;;;5070757;28;20074;-52
2023/10/17 14:21:41;;;;;;;2.38;0.90;;;12.40;99.90;;;;;;5073114;28;20044;-50
2023/10/17 14:24:10;;;;;;;3.00;0.90;;;12.30;99.90;;;;;;5064215;28;20124;-49
2023/10/17 14:26:37;;;;;;;2.55;0.75;;;12.30;99.90;;;;;;5053515;28;20056;-50
2023/10/17 14:29:03;;;;;;;5.00;1.30;;;12.30;99.90;;;;;;5070015;28;20040;-52
2023/10/17 14:31:30;;;;;;;3.80;1.00;;;12.10;99.90;;;;;;5057487;28;20047;-52
2023/10/17 14:34:00;;;;;;;0.87;0.80;;;12.10;99.90;;;;;;5073496;28;20131;-51
2023/10/17 14:36:27;;;;;;;3.20;1.20;;;12.10;99.90;;;;;;5072980;28;20072;-50
2023/10/17 14:38:53;;;;;;;3.28;1.10;;;12.00;99.90;;;;;;5073473;28;20407;-51
2023/10/17 14:41:19;;;;;;;3.17;1.33;;;12.00;99.90;;;;;;5068768;28;20051;-49
2023/10/17 14:43:49;;;;;;;3.72;1.40;;;11.80;99.90;;;;;;5072769;28;20542;-51
2023/10/17 14:46:16;;;;;;;4.30;1.58;;;11.80;99.90;;;;;;5073303;28;20079;-49
2023/10/17 14:48:44;;;;;;;2.25;1.35;;;11.60;99.90;;;;;;5072944;28;20044;-52
2023/10/17 14:51:12;;;;;;;5.05;1.35;;;11.60;99.90;;;;;;5072285;28;20076;-51
2023/10/17 14:53:42;;;;;;;5.50;1.30;;;11.60;99.90;;;;;;5067963;28;20052;-51
2023/10/17 14:56:13;;;;;;;5.07;1.70;;;11.60;99.90;;;;;;5065752;28;20068;-49
2023/10/17 14:58:49;;;;;;;2.35;1.10;;;11.50;99.90;;;;;;5063582;28;20184;-52
2023/10/17 15:01:16;;;;;;;3.38;1.20;;;11.40;99.90;;;;;;5066595;28;20041;-49
2023/10/17 15:03:48;;;;;;;3.22;1.40;;;11.40;99.90;;;;;;5062844;28;20380;-52
2023/10/17 15:06:14;;;;;;;2.53;1.23;;;11.40;99.90;;;;;;5056090;28;20436;-49
2023/10/17 15:08:40;;;;;;;4.35;1.10;;;11.40;99.90;;;;;;5061996;28;20056;-52
2023/10/17 15:11:06;;;;;;;3.10;1.38;;;11.30;99.90;;;;;;5067612;28;20041;-51
2023/10/17 15:13:35;;;;;;;2.22;1.23;;;11.30;99.90;;;;;;5065885;28;20045;-52
2023/10/17 15:16:04;;;;;;;4.80;1.33;;;11.20;99.90;;;;;;5066463;28;20040;-52
2023/10/17 15:18:30;;;;;;;3.17;1.55;;;11.20;99.90;;;;;;5067676;28;20055;-51
2023/10/17 15:21:11;;;;;;;2.85;1.42;;;11.30;99.90;;;;;;5063250;28;20403;-50
2023/10/17 15:23:40;;;;;;;3.28;1.40;;;11.20;99.90;;;;;;5066934;28;20094;-50
2023/10/17 15:26:07;;;;;;;3.35;1.20;;;11.20;99.90;;;;;;5061742;28;20044;-49
2023/10/17 15:28:33;;;;;;;4.20;1.73;;;11.10;99.90;;;;;;5066486;28;20073;-50
2023/10/17 15:31:08;;;;;;;4.75;1.30;;;11.00;99.90;;;;;;5064802;28;20029;-52
2023/10/17 15:33:35;;;;;;;4.28;1.30;;;10.90;99.90;;;;;;5065566;28;20040;-52